Weather at Eduardo Gomes International Airport

Public forecast

Using degrees Celsius for public forecast. Weather courtesy of forecast.io.

Current aviation weather report (METAR) for Eduardo Gomes International Airport

Retrieved 2020/11/24 17:00 UTC (19 minutes ago):

SBEG 241700Z 32003KT 9999 SCT010 FEW025TCU BKN080 25/24 Q1011

Aviation forecast (TAF) for Eduardo Gomes International Airport

Retrieved 2020/11/24 12:00 UTC (5 hours ago):

TAF SBEG 240900Z 2412/2512 34005KT 9999 SCT020 TX30/2417Z TN24/2508Z BECMG 2412/2414 02007KT BECMG 2418/2420 32005KT PROB30 2420/2423 TS SCT020 FEW030CB BECMG 2505/2507 34005KT 1000 BR BKN010 BECMG 2507/2509 36005KT 7000 NSW SCT020 RMK PGW